KOGD/OGD METAR and TAF weather

Enter ICAO airport designator
Station Type Date Time Source
KOGD METAR 2021/09/27 07:53 UTC NOAA

KOGD 270753Z AUTO 18007KT 10SM CLR 17/M02 A3000 RMK AO2 SLP100 T01721022


Station Type Date Time Source
KOGD Decoded METAR 2021/09/27 07:53 UTC NOAA

OGDEN-HINCKLEY AIRPORT, UT, United States (KOGD) 41-12N 112-01W 1353M
Sep 27, 2021 - 03:53 AM EDT / 2021.09.27 0753 UTC
Wind: from the S (180 degrees) at 8 MPH (7 KT):0
Visibility: 10 mile(s):0
Sky conditions: clear
Temperature: 63.0 F (17.2 C)
Dew Point: 28.0 F (-2.2 C)
Relative Humidity: 26%
Pressure (altimeter): 30 in. Hg (1015 hPa)
ob: KOGD 270753Z AUTO 18007KT 10SM CLR 17/M02 A3000 RMK AO2 SLP100 T01721022
cycle: 8

Station Type Date Time Source
KOGD TAF 2021/09/27 06:22 UTC NOAA

TAF KOGD 270520Z 2706/2806 17008KT P6SM SKC
FM271800 VRB06KT P6SM SKC
FM280200 17009KT P6SM SKC

Example: see airport list